createdAt,value
2023-01-21T00:03:49.436Z,25.13
2023-01-21T00:08:54.773Z,20.05
2023-01-21T00:14:02.747Z,22.13
2023-01-21T00:19:07.978Z,22.63
2023-01-21T00:24:13.232Z,19.17
2023-01-21T00:29:21.895Z,19.48
2023-01-21T00:34:27.184Z,24.42
2023-01-21T00:39:32.442Z,22.70
2023-01-21T00:44:40.712Z,23.55
2023-01-21T00:49:46.011Z,21.38
2023-01-21T00:54:51.607Z,25.48
2023-01-21T00:59:59.435Z,25.10
2023-01-21T01:05:05.919Z,19.83
2023-01-21T01:10:12.632Z,23.10
2023-01-21T01:15:20.557Z,21.25
2023-01-21T01:20:26.242Z,23.70
2023-01-21T01:25:31.486Z,21.77
2023-01-21T01:30:40.165Z,23.13
2023-01-21T01:35:47.147Z,23.40
2023-01-21T01:40:54.269Z,23.88
2023-01-21T01:46:02.157Z,29.85
2023-01-21T01:51:09.353Z,22.55
2023-01-21T01:56:15.273Z,24.03
2023-01-21T02:01:23.213Z,21.55
2023-01-21T02:06:30.153Z,24.38
2023-01-21T02:11:39.637Z,25.55
2023-01-21T02:17:00.852Z,26.48
2023-01-21T02:22:12.119Z,28.30
2023-01-21T02:27:42.182Z,26.65
2023-01-21T02:33:20.991Z,26.90
2023-01-21T02:38:32.614Z,22.85
2023-01-21T02:43:45.979Z,29.08
2023-01-21T02:49:00.928Z,23.87
2023-01-21T02:54:16.682Z,22.90
2023-01-21T02:59:21.943Z,24.65
2023-01-21T03:04:54.119Z,22.15
2023-01-21T03:10:03.260Z,21.98
2023-01-21T03:15:24.778Z,23.37
2023-01-21T03:20:37.684Z,24.05
2023-01-21T03:25:44.378Z,24.75
2023-01-21T03:31:01.605Z,20.05
2023-01-21T03:36:14.572Z,25.20
2023-01-21T03:41:23.348Z,27.80
2023-01-21T03:46:37.396Z,24.02
2023-01-21T03:51:51.033Z,26.48
2023-01-21T03:56:56.527Z,29.33
2023-01-21T04:02:01.864Z,25.52
2023-01-21T04:07:09.695Z,28.87
2023-01-21T04:12:14.979Z,26.90
2023-01-21T04:17:20.249Z,26.05
2023-01-21T04:22:28.088Z,31.88
2023-01-21T04:27:33.423Z,31.88
2023-01-21T04:32:38.647Z,29.10
2023-01-21T04:37:46.445Z,30.70
2023-01-21T04:42:51.793Z,29.50
2023-01-21T04:47:57.007Z,29.75
2023-01-21T04:53:04.827Z,33.92
2023-01-21T04:58:10.157Z,30.10
2023-01-21T05:03:15.534Z,33.13
2023-01-21T05:08:23.430Z,27.75
2023-01-21T05:13:28.610Z,30.33
2023-01-21T05:18:33.871Z,30.92
2023-01-21T05:23:41.685Z,27.60
2023-01-21T05:28:47.195Z,34.33
2023-01-21T05:33:52.436Z,26.48
2023-01-21T05:39:00.332Z,31.40
2023-01-21T05:44:05.583Z,31.13
2023-01-21T05:49:10.892Z,24.80
2023-01-21T05:54:18.988Z,28.33
2023-01-21T05:59:24.384Z,26.90
2023-01-21T06:04:30.854Z,31.05
2023-01-21T06:09:38.765Z,28.45
2023-01-21T06:14:44.025Z,29.70
2023-01-21T06:19:49.276Z,29.65
2023-01-21T06:24:57.137Z,31.30
2023-01-21T06:30:02.386Z,32.05
2023-01-21T06:35:08.588Z,28.63
2023-01-21T06:40:17.848Z,30.10
2023-01-21T06:45:23.372Z,34.15
2023-01-21T06:50:28.674Z,33.55
2023-01-21T06:55:36.651Z,30.23
2023-01-21T07:00:42.295Z,28.83
2023-01-21T07:05:47.634Z,29.00
2023-01-21T07:10:55.499Z,30.55
2023-01-21T07:16:04.567Z,33.58
2023-01-21T07:21:11.490Z,31.77
2023-01-21T07:26:19.434Z,33.25
2023-01-21T07:31:24.842Z,33.27
2023-01-21T07:36:30.322Z,32.05
2023-01-21T07:41:38.301Z,33.13
2023-01-21T07:46:49.693Z,33.88
2023-01-21T07:51:59.794Z,30.40
2023-01-21T07:57:07.767Z,34.27
2023-01-21T08:02:14.531Z,38.22
2023-01-21T08:07:19.957Z,36.10
2023-01-21T08:12:27.859Z,36.40
2023-01-21T08:17:33.153Z,37.50
2023-01-21T08:22:38.654Z,34.53
2023-01-21T08:27:46.447Z,40.40
2023-01-21T08:32:51.675Z,35.80
2023-01-21T08:37:58.239Z,36.67
2023-01-21T08:43:07.939Z,42.35
2023-01-21T08:48:13.332Z,35.17
2023-01-21T08:53:18.649Z,33.90
2023-01-21T08:58:26.547Z,34.58
2023-01-21T09:03:31.822Z,35.28
2023-01-21T09:08:37.141Z,34.83
2023-01-21T09:13:45.911Z,35.87
2023-01-21T09:18:51.789Z,38.50
2023-01-21T09:23:57.220Z,35.67
2023-01-21T09:29:05.324Z,32.47
2023-01-21T09:34:10.862Z,41.65
2023-01-21T09:39:16.182Z,29.77
2023-01-21T09:44:30.290Z,32.85
2023-01-21T09:49:41.308Z,32.50
2023-01-21T09:54:46.681Z,36.25
2023-01-21T10:00:08.479Z,35.95
2023-01-21T10:05:43.357Z,36.97
2023-01-21T10:10:54.260Z,30.67
2023-01-21T10:16:11.231Z,34.55
2023-01-21T10:21:23.887Z,34.90
2023-01-21T10:26:30.979Z,35.92
2023-01-21T10:31:44.422Z,36.10
2023-01-21T10:36:59.295Z,36.47
2023-01-21T10:42:40.272Z,33.78
2023-01-21T10:47:55.035Z,37.60
2023-01-21T10:53:06.328Z,36.78
2023-01-21T10:58:25.603Z,41.00
2023-01-21T11:03:41.417Z,38.30
2023-01-21T11:08:49.442Z,37.20
2023-01-21T11:13:54.878Z,39.33
2023-01-21T11:19:02.839Z,30.30
2023-01-21T11:24:23.609Z,34.87
2023-01-21T11:29:29.511Z,36.10
2023-01-21T11:34:37.433Z,34.92
2023-01-21T11:39:51.505Z,35.38
2023-01-21T11:45:01.577Z,35.08
2023-01-21T11:50:17.454Z,34.97
2023-01-21T11:55:26.139Z,34.35
2023-01-21T12:00:39.159Z,32.80
2023-01-21T12:05:51.648Z,34.63
2023-01-21T12:11:02.163Z,27.23
2023-01-21T12:16:33.130Z,28.47
2023-01-21T12:21:51.378Z,26.83
2023-01-21T12:27:04.377Z,29.67
2023-01-21T12:32:16.019Z,28.35
2023-01-21T12:37:29.749Z,24.38
2023-01-21T12:42:43.566Z,26.53
2023-01-21T12:47:56.632Z,22.10
2023-01-21T12:53:19.079Z,24.55
2023-01-21T12:58:27.872Z,22.85
2023-01-21T13:03:44.875Z,24.35
2023-01-21T13:08:59.465Z,26.10
2023-01-21T13:14:24.543Z,23.17
2023-01-21T13:19:30.293Z,24.60
2023-01-21T13:24:56.238Z,23.70
2023-01-21T13:30:08.168Z,26.65
2023-01-21T13:35:28.298Z,26.10
2023-01-21T13:40:55.001Z,22.15
2023-01-21T13:46:14.702Z,26.65
2023-01-21T13:51:43.520Z,26.08
2023-01-21T13:57:07.036Z,27.20
2023-01-21T14:02:17.971Z,23.77
2023-01-21T14:07:28.167Z,25.13
2023-01-21T14:12:52.083Z,24.50
2023-01-21T14:18:20.672Z,23.10
2023-01-21T14:23:44.544Z,24.63
2023-01-21T14:29:03.561Z,21.97
2023-01-21T14:34:18.782Z,20.90
2023-01-21T14:39:41.087Z,23.60
2023-01-21T14:45:06.168Z,18.67
2023-01-21T14:50:12.388Z,24.02
2023-01-21T14:55:31.673Z,21.00
2023-01-21T15:00:40.312Z,19.60
2023-01-21T15:05:51.584Z,23.70
2023-01-21T15:11:08.275Z,18.08
2023-01-21T15:16:36.976Z,22.58
2023-01-21T15:22:03.822Z,21.20
2023-01-21T15:27:20.484Z,24.20
2023-01-21T15:32:33.868Z,23.77
2023-01-21T15:37:48.675Z,22.42
2023-01-21T15:42:59.884Z,23.35
2023-01-21T15:48:41.657Z,23.23
2023-01-21T15:54:27.722Z,18.25
2023-01-21T15:59:56.014Z,17.35
2023-01-21T16:05:18.365Z,17.55
2023-01-21T16:10:31.653Z,18.60
2023-01-21T16:15:44.962Z,15.73
2023-01-21T16:20:56.663Z,15.52
2023-01-21T16:26:02.146Z,14.50
2023-01-21T16:31:07.795Z,17.67
2023-01-21T16:36:18.142Z,18.58
2023-01-21T16:41:27.690Z,17.20
2023-01-21T16:46:37.645Z,20.02
2023-01-21T16:51:54.101Z,17.35
2023-01-21T16:57:02.305Z,18.13
2023-01-21T17:02:14.233Z,18.77
2023-01-21T17:07:25.327Z,14.07
2023-01-21T17:12:33.660Z,14.02
2023-01-21T17:17:40.686Z,14.07
2023-01-21T17:22:49.184Z,12.95
2023-01-21T17:27:56.845Z,14.57
2023-01-21T17:33:06.693Z,14.10
2023-01-21T17:38:31.974Z,12.68
2023-01-21T17:43:38.413Z,16.30
2023-01-21T17:48:48.944Z,12.88
2023-01-21T17:53:59.493Z,13.98
2023-01-21T17:59:05.364Z,16.20
2023-01-21T18:04:10.626Z,14.98
2023-01-21T18:09:20.404Z,15.18
2023-01-21T18:14:28.905Z,17.33
2023-01-21T18:19:36.503Z,16.73
2023-01-21T18:24:44.449Z,15.80
2023-01-21T18:29:50.114Z,16.25
2023-01-21T18:34:55.567Z,14.85
2023-01-21T18:40:05.782Z,17.40
2023-01-21T18:45:17.040Z,15.35
2023-01-21T18:50:25.343Z,25.70
2023-01-21T18:55:33.313Z,18.17
2023-01-21T19:00:38.823Z,15.18
2023-01-21T19:05:47.825Z,17.55
2023-01-21T19:10:55.934Z,17.35
2023-01-21T19:16:03.241Z,19.97
2023-01-21T19:21:09.000Z,19.63
2023-01-21T19:26:17.555Z,18.25
2023-01-21T19:31:24.886Z,16.48
2023-01-21T19:36:30.313Z,19.85
2023-01-21T19:41:38.173Z,19.80
2023-01-21T19:46:43.922Z,22.27
2023-01-21T19:51:49.879Z,20.63
2023-01-21T19:56:57.776Z,21.58
2023-01-21T20:02:03.386Z,19.20
2023-01-21T20:07:09.329Z,27.37
2023-01-21T20:12:17.744Z,20.35
2023-01-21T20:17:23.261Z,24.13
2023-01-21T20:22:28.565Z,21.30
2023-01-21T20:27:37.696Z,25.63
2023-01-21T20:32:44.325Z,26.43
2023-01-21T20:37:53.135Z,27.70
2023-01-21T20:43:01.660Z,28.55
2023-01-21T20:48:07.455Z,25.10
2023-01-21T20:53:16.269Z,28.27
2023-01-21T20:58:26.011Z,29.60
2023-01-21T21:03:31.251Z,28.77
2023-01-21T21:08:36.534Z,29.88
2023-01-21T21:13:46.486Z,25.92
2023-01-21T21:18:52.971Z,28.27
2023-01-21T21:23:58.444Z,28.07
2023-01-21T21:29:06.438Z,28.00
2023-01-21T21:34:12.590Z,34.17
2023-01-21T21:39:19.658Z,25.08
2023-01-21T21:44:30.490Z,32.83
2023-01-21T21:49:36.075Z,29.97
2023-01-21T21:54:41.609Z,30.08
2023-01-21T21:59:49.493Z,26.05
2023-01-21T22:04:55.679Z,29.42
2023-01-21T22:10:01.027Z,29.45
2023-01-21T22:15:10.294Z,31.67
2023-01-21T22:20:15.970Z,29.20
2023-01-21T22:25:21.297Z,26.92
2023-01-21T22:30:29.197Z,24.40
2023-01-21T22:35:34.453Z,26.88
2023-01-21T22:40:40.235Z,27.53
2023-01-21T22:45:52.238Z,26.65
2023-01-21T22:50:59.096Z,28.55
2023-01-21T22:56:06.657Z,28.45
2023-01-21T23:01:24.297Z,25.10
2023-01-21T23:06:29.780Z,25.03
2023-01-21T23:11:35.268Z,27.30
2023-01-21T23:16:43.340Z,24.17
2023-01-21T23:21:48.781Z,25.70
2023-01-21T23:26:54.069Z,26.42
2023-01-21T23:32:02.989Z,24.73
2023-01-21T23:37:08.372Z,26.90
2023-01-21T23:42:13.674Z,27.17
2023-01-21T23:47:21.580Z,26.13
2023-01-21T23:52:26.856Z,26.92
2023-01-21T23:57:32.144Z,26.63
